Terminal Aerodrome Forecast
Issued by NWS Duluth, MN

Home | Current Version | Previous Version | Text Only | Print | Product List | Glossary On
Versions: 1 2 3 4 5 6 7 8 9 10 11 12 13 14 15 16 17 18 19 20 21 22 23 24 25 26 27 28 29 30 31 32
583
FTUS43 KDLH 281917 AAA
TAFINL
TAF AMD
KINL 281917Z 2819/2918 01007KT P6SM OVC030
     FM290000 04002KT P6SM BKN025
     FM290900 00000KT 6SM BR SCT025
     FM291300 08002KT P6SM SCT025=

USA.gov is the U.S. government's official web portal to all federal, state and local government web resources and services.